createdAt,value
2022-09-04T00:00:10.679Z,59.01
2022-09-04T00:02:52.853Z,59.06
2022-09-04T00:05:35.318Z,59.78
2022-09-04T00:08:24.029Z,59.21
2022-09-04T00:11:13.029Z,59.08
2022-09-04T00:13:45.911Z,59.73
2022-09-04T00:16:25.241Z,59.49
2022-09-04T00:19:03.680Z,59.38
2022-09-04T00:21:36.699Z,59.61
2022-09-04T00:24:25.562Z,59.40
2022-09-04T00:29:36.469Z,59.04
2022-09-04T00:32:23.264Z,59.26
2022-09-04T00:34:56.455Z,59.04
2022-09-04T00:37:29.160Z,59.06
2022-09-04T00:40:33.969Z,59.33
2022-09-04T00:43:13.184Z,60.33
2022-09-04T00:45:43.474Z,59.45
2022-09-04T00:48:16.749Z,59.35
2022-09-04T00:50:55.696Z,59.54
2022-09-04T00:53:31.352Z,59.63
2022-09-04T00:56:36.369Z,60.27
2022-09-04T00:59:22.404Z,59.64
2022-09-04T01:01:51.825Z,59.53
2022-09-04T01:04:28.478Z,59.61
2022-09-04T01:07:27.857Z,58.86
2022-09-04T01:10:04.683Z,59.62
2022-09-04T01:12:38.307Z,59.38
2022-09-04T01:15:14.529Z,59.90
2022-09-04T01:17:50.479Z,59.72
2022-09-04T01:20:50.151Z,60.34
2022-09-04T01:23:26.155Z,60.59
2022-09-04T01:26:17.724Z,60.17
2022-09-04T01:28:54.017Z,60.53
2022-09-04T01:31:21.228Z,60.25
2022-09-04T01:34:00.986Z,60.48
2022-09-04T01:36:32.785Z,60.25
2022-09-04T01:39:01.529Z,60.18
2022-09-04T01:42:02.047Z,60.55
2022-09-04T01:44:30.223Z,60.07
2022-09-04T01:47:09.743Z,59.50
2022-09-04T01:49:59.431Z,59.46
2022-09-04T01:52:36.615Z,59.79
2022-09-04T01:55:24.088Z,59.84
2022-09-04T01:58:07.588Z,59.67
2022-09-04T02:00:47.457Z,59.39
2022-09-04T02:03:39.430Z,58.91
2022-09-04T02:06:45.263Z,58.66
2022-09-04T02:09:38.182Z,58.63
2022-09-04T02:12:17.366Z,58.22
2022-09-04T02:15:04.269Z,57.67
2022-09-04T02:18:02.800Z,58.25
2022-09-04T02:20:31.146Z,57.99
2022-09-04T02:23:07.086Z,57.26
2022-09-04T02:25:56.245Z,56.29
2022-09-04T02:28:39.971Z,57.96
2022-09-04T02:31:23.159Z,57.47
2022-09-04T02:34:10.140Z,57.69
2022-09-04T02:36:46.600Z,57.32
2022-09-04T02:39:43.339Z,57.65
2022-09-04T02:42:35.953Z,57.29
2022-09-04T02:45:14.111Z,57.48
2022-09-04T02:47:52.803Z,57.88
2022-09-04T02:50:39.353Z,58.36
2022-09-04T02:53:37.759Z,57.78
2022-09-04T02:56:16.595Z,57.13
2022-09-04T02:59:07.675Z,55.75
2022-09-04T03:01:57.517Z,55.40
2022-09-04T03:04:50.485Z,56.05
2022-09-04T03:07:23.562Z,56.45
2022-09-04T03:10:08.500Z,56.52
2022-09-04T03:12:42.944Z,56.55
2022-09-04T03:15:32.335Z,56.81
2022-09-04T03:18:04.849Z,56.65
2022-09-04T03:20:37.016Z,56.21
2022-09-04T03:23:19.882Z,56.74
2022-09-04T03:25:53.138Z,56.47
2022-09-04T03:28:28.027Z,56.58
2022-09-04T03:30:58.132Z,56.33
2022-09-04T03:33:35.711Z,56.36
2022-09-04T03:36:14.469Z,56.54
2022-09-04T03:38:52.227Z,57.17
2022-09-04T03:41:38.541Z,55.49
2022-09-04T03:44:36.376Z,56.42
2022-09-04T03:47:31.356Z,56.50
2022-09-04T03:50:09.741Z,56.60
2022-09-04T03:52:40.292Z,57.10
2022-09-04T03:55:34.248Z,55.68
2022-09-04T03:58:22.669Z,56.52
2022-09-04T04:01:06.045Z,56.90
2022-09-04T04:04:03.161Z,56.81
2022-09-04T04:06:38.223Z,57.23
2022-09-04T04:09:46.919Z,56.04
2022-09-04T04:12:31.787Z,56.75
2022-09-04T04:15:28.072Z,57.29
2022-09-04T04:18:13.395Z,57.93
2022-09-04T04:20:45.440Z,56.89
2022-09-04T04:23:36.391Z,57.02
2022-09-04T04:26:22.070Z,57.18
2022-09-04T04:29:08.649Z,57.16
2022-09-04T04:32:13.877Z,55.94
2022-09-04T04:34:58.272Z,56.69
2022-09-04T04:37:50.352Z,55.83
2022-09-04T04:40:35.700Z,55.99
2022-09-04T04:43:11.270Z,56.77
2022-09-04T04:45:52.329Z,56.55
2022-09-04T04:48:25.079Z,55.75
2022-09-04T04:51:40.799Z,56.41
2022-09-04T04:54:17.206Z,56.25
2022-09-04T04:56:51.358Z,55.65
2022-09-04T04:59:38.127Z,55.68
2022-09-04T05:02:19.207Z,56.18
2022-09-04T05:05:22.411Z,56.64
2022-09-04T05:08:10.352Z,56.13
2022-09-04T05:10:47.345Z,55.60
2022-09-04T05:13:24.002Z,55.55
2022-09-04T05:16:09.294Z,55.89
2022-09-04T05:18:45.341Z,55.11
2022-09-04T05:21:21.725Z,55.69
2022-09-04T05:23:59.581Z,55.51
2022-09-04T05:26:33.607Z,56.05
2022-09-04T05:29:09.649Z,55.75
2022-09-04T05:32:22.079Z,55.44
2022-09-04T05:35:02.085Z,55.90
2022-09-04T05:37:36.729Z,56.13
2022-09-04T05:40:29.563Z,55.89
2022-09-04T05:43:18.658Z,56.05
2022-09-04T05:46:09.328Z,56.10
2022-09-04T05:48:54.949Z,56.73
2022-09-04T05:51:40.335Z,55.85
2022-09-04T05:54:13.656Z,55.71
2022-09-04T05:56:57.075Z,56.40
2022-09-04T05:59:47.661Z,56.13
2022-09-04T06:02:44.493Z,56.80
2022-09-04T06:05:24.190Z,56.33
2022-09-04T06:08:24.093Z,56.34
2022-09-04T06:11:02.269Z,55.62
2022-09-04T06:14:07.322Z,55.27
2022-09-04T06:17:03.681Z,55.60
2022-09-04T06:19:39.997Z,56.32
2022-09-04T06:22:44.687Z,56.64
2022-09-04T06:25:43.733Z,56.42
2022-09-04T06:28:38.706Z,57.23
2022-09-04T06:31:21.286Z,56.41
2022-09-04T06:34:00.637Z,57.00
2022-09-04T06:36:42.865Z,56.68
2022-09-04T06:39:36.912Z,56.82
2022-09-04T06:42:23.119Z,56.99
2022-09-04T06:45:09.784Z,57.27
2022-09-04T06:47:42.649Z,56.56
2022-09-04T06:50:39.958Z,56.78
2022-09-04T06:53:31.196Z,57.96
2022-09-04T06:56:26.104Z,57.26
2022-09-04T06:59:18.397Z,57.18
2022-09-04T07:02:18.933Z,57.15
2022-09-04T07:04:55.613Z,56.18
2022-09-04T07:07:22.847Z,56.94
2022-09-04T07:09:58.704Z,56.69
2022-09-04T07:13:06.088Z,57.05
2022-09-04T07:15:53.326Z,56.39
2022-09-04T07:18:37.867Z,57.05
2022-09-04T07:21:30.388Z,56.22
2022-09-04T07:24:16.084Z,56.90
2022-09-04T07:27:07.879Z,55.74
2022-09-04T07:29:39.861Z,55.96
2022-09-04T07:32:17.989Z,55.54
2022-09-04T07:34:56.664Z,55.49
2022-09-04T07:37:30.052Z,54.74
2022-09-04T07:40:17.402Z,54.23
2022-09-04T07:42:49.821Z,54.27
2022-09-04T07:45:30.030Z,53.52
2022-09-04T07:48:36.387Z,53.05
2022-09-04T07:51:16.919Z,53.25
2022-09-04T07:54:02.952Z,54.08
2022-09-04T07:56:56.376Z,52.76
2022-09-04T07:59:29.759Z,53.49
2022-09-04T08:02:07.642Z,53.67
2022-09-04T08:05:16.360Z,53.06
2022-09-04T08:08:03.797Z,52.24
2022-09-04T08:10:33.985Z,52.55
2022-09-04T08:13:03.934Z,52.50
2022-09-04T08:15:47.408Z,51.96
2022-09-04T08:18:23.074Z,50.61
2022-09-04T08:21:25.672Z,50.79
2022-09-04T08:24:18.151Z,51.59
2022-09-04T08:27:23.270Z,50.41
2022-09-04T08:30:10.755Z,50.96
2022-09-04T08:33:32.521Z,51.51
2022-09-04T08:36:24.747Z,51.16
2022-09-04T08:39:11.907Z,51.23
2022-09-04T08:41:45.359Z,50.86
2022-09-04T08:44:34.290Z,50.95
2022-09-04T08:47:39.170Z,50.39
2022-09-04T08:50:27.342Z,49.88
2022-09-04T08:53:19.732Z,50.67
2022-09-04T08:55:51.107Z,49.95
2022-09-04T08:58:35.149Z,49.32
2022-09-04T09:01:23.835Z,49.04
2022-09-04T09:03:56.897Z,48.96
2022-09-04T09:06:45.973Z,49.02
2022-09-04T09:09:28.488Z,48.53
2022-09-04T09:12:43.759Z,47.95
2022-09-04T09:15:23.741Z,47.36
2022-09-04T09:17:54.046Z,46.90
2022-09-04T09:20:46.201Z,46.87
2022-09-04T09:23:18.400Z,46.38
2022-09-04T09:25:49.642Z,46.63
2022-09-04T09:28:35.225Z,46.47
2022-09-04T09:31:27.180Z,46.03
2022-09-04T09:34:19.169Z,45.40
2022-09-04T09:37:23.509Z,46.35
2022-09-04T09:40:17.255Z,45.71
2022-09-04T09:42:54.549Z,44.93
2022-09-04T09:46:02.237Z,44.04
2022-09-04T09:49:05.099Z,44.53
2022-09-04T09:52:08.717Z,43.46
2022-09-04T09:54:57.410Z,43.42
2022-09-04T09:57:36.631Z,45.28
2022-09-04T10:00:11.097Z,43.93
2022-09-04T10:02:47.207Z,42.51
2022-09-04T10:05:28.365Z,42.80
2022-09-04T10:08:35.523Z,43.69
2022-09-04T10:11:40.919Z,43.67
2022-09-04T10:14:45.539Z,44.01
2022-09-04T10:17:36.957Z,41.94
2022-09-04T10:20:33.403Z,42.24
2022-09-04T10:23:42.566Z,42.47
2022-09-04T10:26:35.785Z,42.22
2022-09-04T10:29:34.048Z,42.38
2022-09-04T10:32:22.656Z,42.13
2022-09-04T10:35:09.464Z,42.13
2022-09-04T10:37:51.310Z,42.26
2022-09-04T10:40:49.278Z,42.51
2022-09-04T10:43:35.316Z,41.79
2022-09-04T10:46:22.711Z,41.87
2022-09-04T10:49:21.352Z,42.29
2022-09-04T10:52:16.028Z,42.08
2022-09-04T10:54:57.186Z,42.15
2022-09-04T10:58:02.177Z,42.03
2022-09-04T11:01:08.425Z,41.33
2022-09-04T11:03:54.136Z,41.19
2022-09-04T11:06:42.293Z,41.33
2022-09-04T11:09:21.652Z,41.22
2022-09-04T11:12:07.416Z,40.93
2022-09-04T11:14:40.963Z,40.45
2022-09-04T11:17:32.854Z,40.98
2022-09-04T11:20:05.971Z,40.53
2022-09-04T11:22:57.968Z,40.54
2022-09-04T11:26:05.992Z,40.57
2022-09-04T11:28:40.334Z,39.89
2022-09-04T11:31:29.789Z,40.45
2022-09-04T11:34:16.940Z,39.79
2022-09-04T11:37:02.926Z,39.44
2022-09-04T11:39:56.346Z,39.85
2022-09-04T11:43:01.019Z,39.49
2022-09-04T11:45:32.348Z,39.96
2022-09-04T11:48:18.585Z,39.88
2022-09-04T11:51:03.959Z,39.85
2022-09-04T11:53:43.444Z,39.64
2022-09-04T11:56:32.218Z,40.01
2022-09-04T11:59:29.744Z,39.61
2022-09-04T12:02:24.055Z,39.51
2022-09-04T12:04:51.238Z,39.29
2022-09-04T12:07:39.353Z,39.01
2022-09-04T12:10:43.033Z,38.56
2022-09-04T12:13:20.253Z,38.92
2022-09-04T12:16:09.152Z,38.77
2022-09-04T12:18:54.850Z,38.74
2022-09-04T12:21:53.796Z,38.33
2022-09-04T12:24:47.417Z,37.97
2022-09-04T12:27:21.544Z,38.24
2022-09-04T12:30:04.061Z,38.10
2022-09-04T12:33:22.737Z,37.87
2022-09-04T12:35:52.842Z,37.07
2022-09-04T12:38:47.349Z,37.37
2022-09-04T12:41:19.701Z,36.62
2022-09-04T12:43:56.155Z,36.46
2022-09-04T12:47:13.904Z,37.16
2022-09-04T12:49:55.636Z,37.05
2022-09-04T12:52:36.837Z,36.51
2022-09-04T12:55:16.884Z,36.82
2022-09-04T12:58:02.856Z,37.16
2022-09-04T13:00:48.737Z,36.46
2022-09-04T13:03:26.943Z,36.45
2022-09-04T13:06:13.101Z,36.01
2022-09-04T13:09:05.160Z,36.38
2022-09-04T13:11:40.559Z,36.59
2022-09-04T13:14:38.994Z,36.40
2022-09-04T13:17:27.307Z,36.83
2022-09-04T13:19:54.956Z,36.56
2022-09-04T13:22:36.455Z,36.45
2022-09-04T13:25:19.135Z,36.01
2022-09-04T13:28:07.556Z,36.28
2022-09-04T13:30:37.235Z,35.67
2022-09-04T13:33:13.762Z,35.97
2022-09-04T13:36:01.176Z,36.23
2022-09-04T13:38:40.973Z,36.40
2022-09-04T13:41:21.125Z,35.82
2022-09-04T13:44:25.696Z,35.06
2022-09-04T13:47:05.966Z,35.29
2022-09-04T13:49:40.169Z,35.13
2022-09-04T13:52:17.055Z,35.03
2022-09-04T13:54:52.729Z,34.96
2022-09-04T13:57:28.047Z,34.90
2022-09-04T14:00:02.960Z,34.76
2022-09-04T14:02:31.874Z,34.66
2022-09-04T14:05:08.693Z,35.05
2022-09-04T14:07:42.842Z,35.17
2022-09-04T14:10:15.666Z,34.89
2022-09-04T14:13:11.156Z,34.38
2022-09-04T14:15:42.036Z,34.44
2022-09-04T14:18:29.095Z,33.99
2022-09-04T14:21:01.413Z,34.03
2022-09-04T14:23:41.715Z,33.41
2022-09-04T14:26:17.100Z,33.02
2022-09-04T14:29:25.804Z,32.68
2022-09-04T14:32:10.729Z,33.33
2022-09-04T14:34:56.174Z,32.80
2022-09-04T14:37:48.473Z,32.55
2022-09-04T14:40:29.730Z,31.93
2022-09-04T14:43:04.585Z,31.89
2022-09-04T14:45:51.021Z,32.60
2022-09-04T14:48:22.230Z,32.09
2022-09-04T14:50:52.346Z,32.39
2022-09-04T14:53:31.850Z,31.91
2022-09-04T14:56:17.699Z,31.99
2022-09-04T14:58:51.159Z,31.74
2022-09-04T15:01:20.712Z,31.71
2022-09-04T15:03:59.851Z,31.41
2022-09-04T15:06:44.610Z,31.52
2022-09-04T15:09:31.023Z,31.68
2022-09-04T15:12:24.346Z,32.45
2022-09-04T15:14:58.057Z,31.49
2022-09-04T15:17:28.308Z,31.74
2022-09-04T15:20:11.508Z,30.71
2022-09-04T15:22:55.500Z,31.10
2022-09-04T15:25:47.893Z,30.95
2022-09-04T15:28:34.520Z,30.63
2022-09-04T15:31:16.749Z,30.76
2022-09-04T15:33:46.655Z,30.40
2022-09-04T15:36:18.281Z,30.60
2022-09-04T15:38:52.006Z,30.32
2022-09-04T15:41:26.795Z,30.59
2022-09-04T15:44:12.548Z,30.28
2022-09-04T15:46:48.804Z,30.22
2022-09-04T15:49:44.057Z,31.11
2022-09-04T15:52:24.216Z,31.17
2022-09-04T15:55:09.973Z,30.65
2022-09-04T15:57:56.133Z,30.88
2022-09-04T16:00:27.220Z,30.87
2022-09-04T16:03:07.084Z,30.28
2022-09-04T16:05:51.352Z,30.47
2022-09-04T16:08:33.219Z,30.31
2022-09-04T16:11:11.670Z,30.45
2022-09-04T16:13:44.529Z,30.67
2022-09-04T16:16:19.125Z,30.67
2022-09-04T16:19:07.192Z,31.22
2022-09-04T16:21:44.416Z,30.90
2022-09-04T16:24:16.099Z,30.80
2022-09-04T16:26:47.665Z,30.62
2022-09-04T16:29:27.151Z,30.80
2022-09-04T16:31:56.796Z,30.89
2022-09-04T16:34:29.908Z,30.54
2022-09-04T16:37:26.740Z,30.86
2022-09-04T16:40:14.420Z,30.74
2022-09-04T16:42:56.954Z,31.12
2022-09-04T16:45:31.588Z,31.16
2022-09-04T16:48:34.171Z,31.15
2022-09-04T16:51:41.397Z,31.43
2022-09-04T16:54:23.187Z,30.97
2022-09-04T16:57:13.114Z,31.24
2022-09-04T16:59:54.417Z,31.12
2022-09-04T17:02:42.172Z,31.20
2022-09-04T17:05:17.742Z,31.04
2022-09-04T17:08:02.783Z,30.93
2022-09-04T17:10:58.044Z,31.23
2022-09-04T17:13:45.720Z,31.28
2022-09-04T17:16:19.337Z,31.52
2022-09-04T17:18:54.564Z,31.53
2022-09-04T17:25:45.126Z,31.60
2022-09-04T17:29:15.038Z,31.68
2022-09-04T17:29:18.801Z,31.85
2022-09-04T17:30:40.451Z,32.27
2022-09-04T17:37:17.516Z,32.00
2022-09-04T17:40:40.624Z,31.29
2022-09-04T17:40:52.071Z,31.93
2022-09-04T17:42:19.980Z,32.13
2022-09-04T17:45:01.187Z,32.28
2022-09-04T17:47:43.206Z,32.00
2022-09-04T17:50:22.625Z,32.48
2022-09-04T17:53:05.919Z,32.13
2022-09-04T17:55:47.243Z,31.86
2022-09-04T17:58:25.898Z,32.01
2022-09-04T18:01:14.501Z,32.03
2022-09-04T18:04:19.856Z,32.28
2022-09-04T18:07:35.619Z,32.16
2022-09-04T18:10:19.663Z,31.69
2022-09-04T18:13:36.306Z,31.82
2022-09-04T18:16:09.744Z,32.07
2022-09-04T18:18:38.615Z,31.77
2022-09-04T18:21:33.499Z,31.88
2022-09-04T18:24:05.997Z,32.08
2022-09-04T18:26:47.256Z,32.40
2022-09-04T18:30:02.086Z,32.63
2022-09-04T18:37:19.445Z,31.85
2022-09-04T18:37:26.725Z,32.55
2022-09-04T18:37:56.002Z,31.70
2022-09-04T18:41:10.171Z,32.18
2022-09-04T18:50:06.778Z,32.08
2022-09-04T18:50:28.922Z,32.70
2022-09-04T18:50:47.271Z,32.55
2022-09-04T18:51:58.210Z,32.39
2022-09-04T18:54:41.698Z,31.88
2022-09-04T18:57:32.620Z,31.62
2022-09-04T19:00:10.072Z,32.24
2022-09-04T19:03:05.058Z,32.10
2022-09-04T19:05:44.817Z,32.11
2022-09-04T19:08:22.062Z,32.15
2022-09-04T19:10:54.262Z,32.07
2022-09-04T19:13:34.575Z,32.24
2022-09-04T19:16:08.876Z,32.50
2022-09-04T19:18:43.713Z,32.03
2022-09-04T19:21:14.912Z,32.08
2022-09-04T19:23:51.470Z,32.20
2022-09-04T19:26:49.901Z,33.52
2022-09-04T19:29:27.819Z,33.33
2022-09-04T19:32:09.883Z,33.23
2022-09-04T19:34:45.938Z,32.99
2022-09-04T19:42:57.019Z,33.52
2022-09-04T19:46:03.203Z,33.23
2022-09-04T19:46:15.612Z,33.63
2022-09-04T19:46:40.233Z,33.49
2022-09-04T19:51:50.928Z,34.36
2022-09-04T19:53:23.204Z,33.82
2022-09-04T19:55:36.649Z,34.01
2022-09-04T19:58:12.118Z,34.16
2022-09-04T20:01:00.116Z,34.55
2022-09-04T20:03:47.210Z,35.28
2022-09-04T20:06:22.458Z,35.06
2022-09-04T20:09:07.512Z,35.21
2022-09-04T20:11:40.439Z,35.32
2022-09-04T20:14:23.737Z,34.90
2022-09-04T20:17:20.825Z,35.11
2022-09-04T20:19:52.804Z,35.51
2022-09-04T20:22:45.308Z,36.44
2022-09-04T20:25:24.491Z,36.43
2022-09-04T20:27:58.613Z,36.62
2022-09-04T20:30:26.471Z,37.10
2022-09-04T20:33:11.562Z,36.99
2022-09-04T20:35:43.184Z,37.89
2022-09-04T20:38:30.645Z,38.03
2022-09-04T20:41:05.559Z,37.54
2022-09-04T20:43:55.926Z,37.42
2022-09-04T20:52:45.489Z,37.97
2022-09-04T20:52:59.023Z,38.29
2022-09-04T20:53:09.539Z,38.34
2022-09-04T20:56:38.177Z,37.78
2022-09-04T21:03:11.237Z,38.41
2022-09-04T21:03:17.611Z,38.69
2022-09-04T21:05:36.537Z,38.89
2022-09-04T21:10:53.510Z,39.52
2022-09-04T21:13:35.231Z,39.18
2022-09-04T21:16:40.316Z,39.25
2022-09-04T21:19:34.078Z,39.59
2022-09-04T21:22:33.076Z,39.95
2022-09-04T21:25:12.789Z,40.55
2022-09-04T21:27:51.327Z,40.17
2022-09-04T21:30:33.923Z,39.85
2022-09-04T21:33:26.775Z,40.21
2022-09-04T21:36:26.640Z,40.21
2022-09-04T21:39:29.974Z,39.98
2022-09-04T21:42:28.600Z,39.64
2022-09-04T21:45:25.978Z,39.58
2022-09-04T21:48:18.142Z,39.97
2022-09-04T21:50:54.740Z,39.89
2022-09-04T21:53:41.500Z,39.55
2022-09-04T22:02:24.997Z,40.01
2022-09-04T22:02:40.289Z,40.32
2022-09-04T22:02:44.244Z,40.29
2022-09-04T22:05:50.325Z,41.73
2022-09-04T22:10:38.510Z,42.28
2022-09-04T22:13:41.887Z,43.10
2022-09-04T22:15:08.148Z,43.45
2022-09-04T22:17:35.414Z,43.32
2022-09-04T22:20:18.893Z,43.94
2022-09-04T22:22:46.094Z,43.78
2022-09-04T22:25:53.301Z,44.58
2022-09-04T22:28:58.905Z,44.75
2022-09-04T22:31:29.408Z,45.34
2022-09-04T22:34:15.921Z,45.42
2022-09-04T22:37:03.038Z,45.36
2022-09-04T22:39:36.875Z,45.35
2022-09-04T22:42:26.358Z,45.74
2022-09-04T22:45:17.934Z,46.52
2022-09-04T22:47:56.468Z,47.20
2022-09-04T22:50:48.956Z,47.70
2022-09-04T22:53:48.492Z,48.76
2022-09-04T22:56:49.627Z,49.09
2022-09-04T22:59:31.089Z,48.67
2022-09-04T23:03:04.087Z,48.65
2022-09-04T23:06:44.706Z,49.19
2022-09-04T23:13:54.385Z,49.58
2022-09-04T23:13:57.403Z,49.59
2022-09-04T23:15:50.615Z,49.70
2022-09-04T23:21:07.157Z,49.31
2022-09-04T23:26:37.749Z,49.17
2022-09-04T23:26:44.145Z,48.93
2022-09-04T23:27:41.478Z,48.99
2022-09-04T23:30:12.374Z,48.71
2022-09-04T23:33:15.005Z,48.66
2022-09-04T23:36:33.853Z,49.49
2022-09-04T23:39:16.934Z,50.22
2022-09-04T23:42:07.144Z,50.52
2022-09-04T23:44:44.113Z,49.73
2022-09-04T23:47:46.766Z,50.00
2022-09-04T23:50:23.082Z,50.13
2022-09-04T23:53:14.739Z,50.04
2022-09-04T23:55:56.453Z,49.68
2022-09-04T23:59:09.984Z,49.62
